Time;durP1;ratioP1;P1;durP2;ratioP2;P2;SDS_P1;SDS_P2;PMS_P1;PMS_P2;Temp;Humidity;BMP_temperature;BMP_pressure;BME280_temperature;BME280_humidity;BME280_pressure;Samples;Min_cycle;Max_cycle;Signal;HPM_P1;HPM_P2
2022/08/01 00:01:02;;;;;;;4.00;2.33;;;17.80;99.90;;;;;;5075156;28;20037;-60
2022/08/01 00:03:27;;;;;;;3.13;2.05;;;17.80;99.90;;;;;;5075146;28;20372;-60
2022/08/01 00:05:53;;;;;;;2.45;1.58;;;17.80;99.90;;;;;;5075085;28;20041;-60
2022/08/01 00:08:18;;;;;;;4.95;2.40;;;17.80;99.90;;;;;;5075070;28;20451;-60
2022/08/01 00:10:44;;;;;;;3.90;2.22;;;17.80;99.90;;;;;;5074953;28;20044;-60
2022/08/01 00:13:10;;;;;;;3.58;2.03;;;17.80;99.90;;;;;;5074665;28;20540;-60
2022/08/01 00:15:36;;;;;;;3.72;2.08;;;17.70;99.90;;;;;;5074348;28;20056;-60
2022/08/01 00:18:01;;;;;;;3.72;2.08;;;17.70;99.90;;;;;;5074566;28;20114;-60
2022/08/01 00:20:27;;;;;;;3.55;2.00;;;17.70;99.90;;;;;;5074836;28;20429;-60
2022/08/01 00:22:53;;;;;;;4.40;2.42;;;17.70;99.90;;;;;;5074475;28;20040;-60
2022/08/01 00:25:18;;;;;;;3.83;2.08;;;17.70;99.90;;;;;;5073567;28;20397;-60
2022/08/01 00:27:44;;;;;;;3.35;2.13;;;17.70;99.90;;;;;;5073335;28;20453;-60
2022/08/01 00:30:10;;;;;;;3.95;2.08;;;17.70;99.90;;;;;;5074541;28;20044;-59
2022/08/01 00:32:35;;;;;;;5.75;2.45;;;17.70;99.90;;;;;;5074257;28;20040;-60
2022/08/01 00:35:01;;;;;;;5.40;2.92;;;17.70;99.90;;;;;;5074432;28;20134;-60
2022/08/01 00:37:27;;;;;;;3.95;2.35;;;17.70;99.90;;;;;;5074471;28;20035;-60
2022/08/01 00:39:52;;;;;;;5.63;3.10;;;17.70;99.90;;;;;;5074057;28;20064;-60
2022/08/01 00:42:18;;;;;;;4.22;2.50;;;17.60;99.90;;;;;;5074023;28;20080;-61
2022/08/01 00:44:44;;;;;;;5.18;3.00;;;17.60;99.90;;;;;;5074289;28;20048;-60
2022/08/01 00:47:10;;;;;;;5.00;2.78;;;17.60;99.90;;;;;;5073024;28;20043;-60
2022/08/01 00:49:36;;;;;;;5.00;2.97;;;17.60;99.90;;;;;;5074003;28;20480;-60
2022/08/01 00:52:04;;;;;;;3.83;2.72;;;17.60;99.90;;;;;;5074150;28;20037;-60
2022/08/01 00:54:31;;;;;;;5.57;2.92;;;17.60;99.90;;;;;;5074120;28;20072;-60
2022/08/01 00:56:57;;;;;;;5.93;2.70;;;17.60;99.90;;;;;;5073757;28;20052;-60
2022/08/01 00:59:23;;;;;;;9.25;2.90;;;17.60;99.90;;;;;;5073683;28;20036;-60
2022/08/01 01:01:49;;;;;;;4.63;2.75;;;17.60;99.90;;;;;;5073976;28;20480;-60
2022/08/01 01:04:16;;;;;;;6.32;3.13;;;17.60;99.90;;;;;;5073969;28;20036;-61
2022/08/01 01:07:06;;;;;;;6.43;2.65;;;17.60;99.90;;;;;;5073541;28;20048;-60
2022/08/01 01:09:50;;;;;;;3.78;2.40;;;17.60;99.90;;;;;;5073514;28;20083;-61
2022/08/01 01:12:31;;;;;;;5.50;2.42;;;17.60;99.90;;;;;;5055591;28;20178;-60
2022/08/01 01:15:21;;;;;;;7.20;3.35;;;17.60;99.90;;;;;;5073197;28;20092;-60
2022/08/01 01:18:00;;;;;;;5.35;2.65;;;17.60;99.90;;;;;;5073721;28;20052;-60
2022/08/01 01:20:35;;;;;;;5.32;2.40;;;17.60;99.90;;;;;;5073567;28;20098;-60
2022/08/01 01:23:27;;;;;;;3.70;2.30;;;17.60;99.90;;;;;;5073322;28;20041;-60
2022/08/01 01:26:14;;;;;;;5.22;2.60;;;17.60;99.90;;;;;;5073528;28;20040;-60
2022/08/01 01:29:01;;;;;;;5.15;2.22;;;17.60;99.90;;;;;;5071914;28;20044;-60
2022/08/01 01:31:29;;;;;;;4.78;2.03;;;17.60;99.90;;;;;;5073143;28;20074;-60
2022/08/01 01:33:56;;;;;;;2.65;1.70;;;17.60;99.90;;;;;;5073436;28;20036;-60
2022/08/01 01:36:25;;;;;;;4.07;1.65;;;17.60;99.90;;;;;;5072735;28;20036;-60
2022/08/01 01:38:52;;;;;;;4.25;1.67;;;17.60;99.90;;;;;;5073051;28;20082;-60
2022/08/01 01:41:19;;;;;;;2.83;1.90;;;17.60;99.90;;;;;;5071838;28;20057;-60
2022/08/01 01:43:46;;;;;;;3.17;1.45;;;17.60;99.90;;;;;;5072988;28;20051;-60
2022/08/01 01:46:15;;;;;;;3.17;1.80;;;17.60;99.90;;;;;;5071784;28;20052;-59
2022/08/01 01:48:44;;;;;;;2.08;1.42;;;17.60;99.90;;;;;;5073250;28;20057;-60
2022/08/01 01:51:12;;;;;;;2.25;1.50;;;17.60;99.90;;;;;;5073236;28;20044;-60
2022/08/01 01:53:40;;;;;;;1.95;1.15;;;17.60;99.90;;;;;;5071688;28;20052;-60
2022/08/01 01:56:08;;;;;;;1.55;0.95;;;17.60;99.90;;;;;;5073137;28;20044;-60
2022/08/01 01:58:35;;;;;;;1.63;1.17;;;17.60;99.90;;;;;;5073165;28;20411;-60
2022/08/01 02:01:02;;;;;;;1.98;1.20;;;17.60;99.90;;;;;;5073186;28;20068;-60
2022/08/01 02:03:29;;;;;;;1.55;1.15;;;17.60;99.90;;;;;;5073135;28;20111;-60
2022/08/01 02:05:55;;;;;;;2.63;1.20;;;17.60;99.90;;;;;;5073103;28;20050;-60
2022/08/01 02:08:23;;;;;;;1.38;1.10;;;17.60;99.90;;;;;;5073139;28;20495;-60
2022/08/01 02:13:38;;;;;;;2.65;1.30;;;17.60;99.90;;;;;;5072876;28;20044;-60
2022/08/01 02:16:05;;;;;;;2.10;1.10;;;17.60;99.90;;;;;;5072485;28;20067;-60
2022/08/01 02:18:32;;;;;;;1.70;1.00;;;17.60;99.90;;;;;;5072970;28;20048;-60
2022/08/01 02:21:00;;;;;;;2.65;1.50;;;17.60;99.90;;;;;;5072673;28;20071;-61
2022/08/01 02:23:32;;;;;;;5.57;1.20;;;17.60;99.90;;;;;;5072905;28;20036;-60
2022/08/01 02:25:59;;;;;;;4.00;0.95;;;17.50;99.90;;;;;;5072932;28;20063;-60
2022/08/01 02:28:32;;;;;;;1.30;0.80;;;17.60;99.90;;;;;;5072827;28;20044;-60
2022/08/01 02:31:04;;;;;;;1.45;0.95;;;17.50;99.90;;;;;;5072892;28;20051;-60
2022/08/01 02:33:37;;;;;;;1.33;0.93;;;17.40;99.90;;;;;;5072817;28;20036;-60
2022/08/01 02:36:04;;;;;;;1.25;0.80;;;17.30;99.90;;;;;;5071186;28;20127;-60
2022/08/01 02:38:34;;;;;;;3.17;0.82;;;17.40;99.90;;;;;;5072468;28;20403;-60
2022/08/01 02:41:05;;;;;;;1.88;0.80;;;17.30;99.90;;;;;;5072682;28;20093;-60
2022/08/01 02:43:36;;;;;;;1.70;0.73;;;17.40;99.90;;;;;;5072441;28;20098;-60
2022/08/01 02:46:04;;;;;;;4.07;0.73;;;17.30;99.90;;;;;;5072444;28;20079;-60
2022/08/01 02:48:33;;;;;;;2.45;0.77;;;17.30;99.90;;;;;;5074331;28;20111;-60
2022/08/01 02:51:01;;;;;;;1.33;0.85;;;17.30;99.90;;;;;;5076250;28;20131;-60
2022/08/01 02:53:36;;;;;;;1.45;0.93;;;17.30;99.90;;;;;;5076131;28;20048;-60
2022/08/01 02:56:04;;;;;;;1.88;0.95;;;17.30;99.90;;;;;;5076029;28;20044;-60
2022/08/01 02:58:30;;;;;;;1.00;0.57;;;17.30;99.90;;;;;;5074822;28;20067;-59
2022/08/01 03:00:58;;;;;;;1.85;0.95;;;17.20;99.90;;;;;;5075996;28;20036;-60
2022/08/01 03:03:24;;;;;;;1.92;0.52;;;17.20;99.90;;;;;;5076223;28;20129;-60
2022/08/01 03:05:50;;;;;;;1.90;0.80;;;17.20;99.90;;;;;;5076202;28;20085;-59
2022/08/01 03:08:18;;;;;;;2.78;0.88;;;17.30;99.90;;;;;;5075884;28;20040;-60
2022/08/01 03:10:46;;;;;;;0.77;0.50;;;17.20;99.90;;;;;;5076111;28;20037;-59
2022/08/01 03:13:15;;;;;;;2.13;0.98;;;17.20;99.90;;;;;;5075779;28;20033;-60
2022/08/01 03:15:43;;;;;;;1.17;0.63;;;17.10;99.90;;;;;;5075585;28;20049;-59
2022/08/01 03:18:11;;;;;;;1.17;0.73;;;17.10;99.90;;;;;;5074479;28;20056;-60
2022/08/01 03:20:37;;;;;;;1.75;0.70;;;17.10;99.90;;;;;;5075685;28;20134;-60
2022/08/01 03:23:06;;;;;;;0.50;0.50;;;17.10;99.90;;;;;;5074660;28;20049;-60
2022/08/01 03:25:34;;;;;;;1.38;0.73;;;17.10;99.90;;;;;;5075892;28;20496;-60
2022/08/01 03:28:03;;;;;;;0.60;0.52;;;17.10;99.90;;;;;;5075820;28;20051;-60
2022/08/01 03:30:30;;;;;;;4.63;0.73;;;17.10;99.90;;;;;;5075745;28;20082;-60
2022/08/01 03:32:57;;;;;;;3.78;0.70;;;17.10;99.90;;;;;;5074499;28;20043;-60
2022/08/01 03:35:29;;;;;;;1.40;0.52;;;17.10;99.90;;;;;;5075622;28;20044;-60
2022/08/01 03:37:56;;;;;;;2.10;0.80;;;17.10;99.90;;;;;;5075715;28;20488;-60
2022/08/01 03:40:25;;;;;;;1.38;0.88;;;17.00;99.90;;;;;;5075597;28;20040;-60
2022/08/01 03:42:56;;;;;;;1.30;0.93;;;17.10;99.90;;;;;;5075544;28;20044;-60
2022/08/01 03:45:24;;;;;;;;;;;17.00;99.90;;;;;;5075935;28;20036;-60
2022/08/01 03:47:58;;;;;;;6.03;1.08;;;17.10;99.90;;;;;;5075137;28;19916;-60
2022/08/01 03:50:25;;;;;;;3.45;0.80;;;17.00;99.90;;;;;;5075412;28;20052;-60
2022/08/01 03:52:53;;;;;;;2.53;0.95;;;17.00;99.90;;;;;;5073967;28;20039;-60
2022/08/01 03:55:21;;;;;;;2.00;0.90;;;17.00;99.90;;;;;;5075221;28;20048;-60
2022/08/01 03:57:47;;;;;;;2.58;1.00;;;17.00;99.90;;;;;;5075337;28;20036;-60
2022/08/01 04:00:18;;;;;;;1.80;0.75;;;17.00;99.90;;;;;;5075064;28;20040;-60
2022/08/01 04:02:48;;;;;;;5.88;1.10;;;17.00;99.90;;;;;;5075248;28;20040;-60
2022/08/01 04:05:17;;;;;;;1.58;0.80;;;16.90;99.90;;;;;;5075201;28;20048;-60
2022/08/01 04:07:55;;;;;;;1.77;1.13;;;16.90;99.90;;;;;;5074845;28;20045;-61
2022/08/01 04:10:22;;;;;;;2.25;1.10;;;16.90;99.90;;;;;;5075098;28;20369;-61
2022/08/01 04:12:48;;;;;;;1.67;0.57;;;16.90;99.90;;;;;;5075048;28;20052;-61
2022/08/01 04:15:14;;;;;;;2.60;1.30;;;16.90;99.90;;;;;;5074382;28;20053;-60
2022/08/01 04:17:39;;;;;;;1.33;0.98;;;16.90;99.90;;;;;;5074942;28;20052;-59
2022/08/01 04:20:05;;;;;;;0.90;0.82;;;16.90;99.90;;;;;;5074849;28;20036;-60
2022/08/01 04:22:31;;;;;;;1.73;0.80;;;17.00;99.90;;;;;;5074779;28;20115;-59
2022/08/01 04:24:59;;;;;;;2.42;0.93;;;16.90;99.90;;;;;;5074506;28;20565;-60
2022/08/01 04:27:37;;;;;;;2.08;1.00;;;16.90;99.90;;;;;;5074426;28;20037;-60
2022/08/01 04:30:04;;;;;;;2.28;0.90;;;16.90;99.90;;;;;;5074679;28;20038;-60
2022/08/01 04:32:34;;;;;;;5.25;1.02;;;16.90;99.90;;;;;;5074262;28;20040;-60
2022/08/01 04:35:06;;;;;;;0.80;0.60;;;16.90;99.90;;;;;;5074218;28;20123;-60
2022/08/01 04:37:33;;;;;;;3.25;1.25;;;16.90;99.90;;;;;;5074506;28;20032;-60
2022/08/01 04:40:00;;;;;;;1.73;1.10;;;16.90;99.90;;;;;;5074447;28;20145;-60
2022/08/01 04:42:27;;;;;;;1.17;0.75;;;16.90;99.90;;;;;;5074344;28;20041;-59
2022/08/01 04:44:53;;;;;;;1.08;0.70;;;16.80;99.90;;;;;;5074394;28;20047;-60
2022/08/01 04:47:19;;;;;;;2.72;0.95;;;16.80;99.90;;;;;;5072850;28;20408;-60
2022/08/01 04:49:45;;;;;;;1.88;1.05;;;16.80;99.90;;;;;;5072875;28;20079;-60
2022/08/01 04:52:11;;;;;;;1.58;0.95;;;16.80;99.90;;;;;;5074201;28;20446;-60
2022/08/01 04:54:37;;;;;;;1.17;0.77;;;16.80;99.90;;;;;;5074159;28;20044;-60
2022/08/01 04:57:04;;;;;;;2.25;0.77;;;16.70;99.90;;;;;;5073801;28;20536;-61
2022/08/01 04:59:41;;;;;;;3.28;1.02;;;16.70;99.90;;;;;;5072773;28;20081;-60
2022/08/01 05:02:16;;;;;;;5.10;0.85;;;16.70;99.90;;;;;;5074017;28;20036;-60
2022/08/01 05:04:44;;;;;;;3.83;1.20;;;16.60;99.90;;;;;;5073970;28;20032;-60
2022/08/01 05:07:11;;;;;;;3.35;1.25;;;16.60;99.90;;;;;;5073592;28;20131;-60
2022/08/01 05:09:38;;;;;;;3.20;1.45;;;16.60;99.90;;;;;;5073843;28;20484;-60
2022/08/01 05:12:05;;;;;;;2.67;1.33;;;16.60;99.90;;;;;;5073250;28;20564;-61
2022/08/01 05:14:32;;;;;;;2.97;0.90;;;16.60;99.90;;;;;;5073581;28;20127;-60
2022/08/01 05:17:03;;;;;;;1.65;0.73;;;16.50;99.90;;;;;;5073683;28;20044;-60
2022/08/01 05:19:32;;;;;;;;;;;16.50;99.90;;;;;;5073894;28;20041;-60
2022/08/01 05:22:00;;;;;;;6.13;0.98;;;16.60;99.90;;;;;;5073294;28;19916;-60
2022/08/01 05:24:28;;;;;;;1.73;0.70;;;16.50;99.90;;;;;;5073569;28;20036;-60
2022/08/01 05:26:57;;;;;;;1.65;0.85;;;16.50;99.90;;;;;;5073600;28;20037;-60
2022/08/01 05:29:23;;;;;;;2.13;0.88;;;16.50;99.90;;;;;;5055326;28;20044;-61
2022/08/01 05:31:49;;;;;;;8.07;1.13;;;16.50;99.90;;;;;;5072000;28;20386;-60
2022/08/01 05:34:15;;;;;;;4.25;1.17;;;16.50;99.90;;;;;;5073542;28;20051;-60
2022/08/01 05:36:41;;;;;;;1.60;1.05;;;16.50;99.90;;;;;;5073230;28;20040;-60
2022/08/01 05:39:07;;;;;;;7.28;1.15;;;16.50;99.90;;;;;;5073061;28;20075;-60
2022/08/01 05:41:33;;;;;;;6.88;1.13;;;16.50;99.90;;;;;;5073338;28;20075;-60
2022/08/01 05:43:59;;;;;;;2.20;0.90;;;16.40;99.90;;;;;;5073347;28;20548;-60
2022/08/01 05:46:24;;;;;;;1.63;0.90;;;16.50;99.90;;;;;;5073294;28;20072;-60
2022/08/01 05:48:50;;;;;;;3.28;1.05;;;16.50;99.90;;;;;;5073213;28;20036;-60
2022/08/01 05:51:16;;;;;;;3.45;1.02;;;16.50;99.90;;;;;;5073244;28;20531;-60
2022/08/01 05:53:41;;;;;;;3.40;0.95;;;16.50;99.90;;;;;;5073167;28;20471;-60
2022/08/01 05:56:07;;;;;;;4.80;1.48;;;16.40;99.90;;;;;;5073145;28;20063;-60
2022/08/01 05:58:33;;;;;;;6.45;1.00;;;16.40;99.90;;;;;;5073113;28;20453;-60
2022/08/01 06:00:59;;;;;;;2.60;0.80;;;16.40;99.90;;;;;;5072805;28;20499;-60
2022/08/01 06:03:24;;;;;;;1.40;0.88;;;16.50;99.90;;;;;;5071817;28;20036;-60
2022/08/01 06:05:52;;;;;;;3.78;0.90;;;16.40;99.90;;;;;;5073054;28;20052;-60
2022/08/01 06:08:18;;;;;;;7.15;1.00;;;16.50;99.90;;;;;;5072813;28;20045;-62
2022/08/01 06:10:44;;;;;;;0.98;0.57;;;16.50;99.90;;;;;;5072709;28;20049;-60
2022/08/01 06:13:09;;;;;;;1.77;0.88;;;16.50;99.90;;;;;;5072976;28;20037;-60
2022/08/01 06:15:35;;;;;;;3.78;0.90;;;16.60;99.90;;;;;;5072452;28;20048;-60
2022/08/01 06:18:01;;;;;;;2.60;1.00;;;16.60;99.90;;;;;;5072907;28;20040;-60
2022/08/01 06:20:26;;;;;;;3.90;1.08;;;16.60;99.90;;;;;;5072910;28;20041;-60
2022/08/01 06:22:52;;;;;;;3.55;1.20;;;16.60;99.90;;;;;;5073279;28;20051;-60
2022/08/01 06:25:18;;;;;;;3.55;0.90;;;16.60;99.90;;;;;;5076743;28;20041;-60
2022/08/01 06:27:44;;;;;;;2.47;1.00;;;16.60;99.90;;;;;;5076638;28;20048;-60
2022/08/01 06:30:10;;;;;;;6.78;1.20;;;16.70;99.90;;;;;;5076868;28;20052;-60
2022/08/01 06:32:36;;;;;;;5.93;1.02;;;16.70;99.90;;;;;;5076829;28;20499;-60
2022/08/01 06:35:03;;;;;;;2.33;1.00;;;16.70;99.90;;;;;;5076717;28;20098;-60
2022/08/01 06:37:30;;;;;;;5.32;0.80;;;16.80;99.90;;;;;;5109310;28;20102;-60
2022/08/01 06:39:56;;;;;;;2.28;1.08;;;16.80;99.90;;;;;;5076762;28;20043;-60
2022/08/01 06:42:21;;;;;;;3.80;0.65;;;16.80;99.90;;;;;;5076687;28;20040;-60
2022/08/01 06:44:47;;;;;;;10.43;1.33;;;16.70;99.90;;;;;;5076337;28;20197;-60
2022/08/01 06:47:13;;;;;;;2.65;0.82;;;16.80;99.90;;;;;;5075264;28;20048;-60
2022/08/01 06:49:38;;;;;;;4.55;1.02;;;16.80;99.90;;;;;;5076419;28;20045;-60
2022/08/01 06:52:04;;;;;;;3.45;0.88;;;16.80;99.90;;;;;;5076468;28;20040;-61
2022/08/01 06:54:30;;;;;;;3.70;1.00;;;16.80;99.90;;;;;;5076386;28;20124;-60
2022/08/01 06:56:55;;;;;;;6.72;1.48;;;16.90;99.90;;;;;;5076029;28;20032;-60
2022/08/01 06:59:21;;;;;;;2.08;1.00;;;16.80;99.90;;;;;;5076019;28;20032;-60
2022/08/01 07:01:46;;;;;;;3.78;0.80;;;16.80;99.90;;;;;;5074641;28;20040;-60
2022/08/01 07:04:12;;;;;;;5.32;1.30;;;16.90;99.90;;;;;;5074656;28;20041;-60
2022/08/01 07:06:38;;;;;;;2.20;0.80;;;16.90;99.90;;;;;;5076136;28;20051;-60
2022/08/01 07:09:03;;;;;;;10.55;1.40;;;16.90;99.90;;;;;;5076078;28;20067;-60
2022/08/01 07:11:29;;;;;;;1.65;1.00;;;16.90;99.90;;;;;;5076069;28;20098;-61
2022/08/01 07:13:55;;;;;;;3.20;1.13;;;17.00;99.90;;;;;;5075577;28;20083;-60
2022/08/01 07:16:21;;;;;;;3.60;0.93;;;17.00;99.90;;;;;;5074051;28;20059;-60
2022/08/01 07:18:47;;;;;;;5.72;1.30;;;17.00;99.90;;;;;;5075753;28;20067;-60
2022/08/01 07:21:13;;;;;;;1.58;1.00;;;17.00;99.90;;;;;;5075464;28;20044;-60
2022/08/01 07:23:38;;;;;;;4.50;1.30;;;17.00;99.90;;;;;;5075376;28;20040;-60
2022/08/01 07:26:04;;;;;;;2.72;1.23;;;17.10;99.90;;;;;;5075403;28;20044;-60
2022/08/01 07:28:30;;;;;;;3.72;0.93;;;17.10;99.90;;;;;;5075623;28;20076;-60
2022/08/01 07:30:56;;;;;;;2.35;0.90;;;17.10;99.90;;;;;;5075307;28;20055;-60
2022/08/01 07:33:22;;;;;;;3.58;1.20;;;17.20;99.90;;;;;;5074829;28;20116;-62
2022/08/01 07:35:48;;;;;;;2.00;1.02;;;17.20;99.90;;;;;;5075361;28;20403;-60
2022/08/01 07:38:16;;;;;;;5.60;1.35;;;17.10;99.90;;;;;;5073972;28;20082;-60
2022/08/01 07:40:43;;;;;;;9.27;1.30;;;17.20;99.90;;;;;;5075122;28;20044;-60
2022/08/01 07:43:08;;;;;;;3.80;1.08;;;17.30;99.90;;;;;;5075397;28;20078;-60
2022/08/01 07:45:34;;;;;;;3.08;1.05;;;17.30;99.90;;;;;;5075712;28;20483;-61
2022/08/01 07:48:05;;;;;;;4.65;1.05;;;17.40;99.90;;;;;;5075322;28;20036;-60
2022/08/01 07:50:30;;;;;;;2.08;0.90;;;17.40;99.90;;;;;;5074993;28;20160;-60
2022/08/01 07:52:56;;;;;;;1.02;0.65;;;17.50;99.90;;;;;;5075209;28;20664;-60
2022/08/01 07:55:22;;;;;;;2.25;0.95;;;17.60;99.90;;;;;;5074767;28;20487;-60
2022/08/01 07:57:48;;;;;;;6.55;1.35;;;17.70;99.90;;;;;;5075168;28;20048;-60
2022/08/01 08:00:14;;;;;;;3.17;1.10;;;17.70;99.90;;;;;;5073872;28;20377;-60
2022/08/01 08:02:40;;;;;;;1.60;0.60;;;17.80;99.90;;;;;;5074982;28;20033;-60
2022/08/01 08:05:07;;;;;;;0.98;0.73;;;17.80;99.90;;;;;;5074886;28;20139;-60
2022/08/01 08:07:33;;;;;;;3.13;1.00;;;17.80;99.90;;;;;;5074597;28;20044;-60
2022/08/01 08:09:59;;;;;;;1.15;0.68;;;17.80;99.90;;;;;;5073346;28;20052;-60
2022/08/01 08:12:25;;;;;;;2.38;0.90;;;17.90;99.90;;;;;;5073448;28;20036;-60
2022/08/01 08:14:51;;;;;;;5.03;0.93;;;17.90;99.90;;;;;;5074350;28;20084;-61
2022/08/01 08:17:16;;;;;;;4.10;1.08;;;17.90;99.90;;;;;;5074677;28;20091;-60
2022/08/01 08:19:42;;;;;;;3.28;0.73;;;17.90;99.90;;;;;;5074331;28;20531;-60
2022/08/01 08:22:09;;;;;;;2.20;0.90;;;17.90;99.90;;;;;;5074396;28;20106;-60
2022/08/01 08:24:35;;;;;;;7.03;0.98;;;18.00;99.90;;;;;;5073264;28;20472;-60
2022/08/01 08:27:02;;;;;;;3.08;0.70;;;18.00;99.90;;;;;;5074546;28;20048;-60
2022/08/01 08:29:31;;;;;;;2.35;0.73;;;18.10;99.90;;;;;;5072964;28;20127;-60
2022/08/01 08:31:58;;;;;;;1.65;0.68;;;18.30;99.90;;;;;;5074247;28;20055;-61
2022/08/01 08:34:24;;;;;;;2.63;0.88;;;18.40;99.90;;;;;;5074189;28;20045;-61
2022/08/01 08:36:51;;;;;;;2.70;1.00;;;18.50;99.90;;;;;;5074072;28;20043;-60
2022/08/01 08:39:17;;;;;;;2.80;1.05;;;18.60;99.90;;;;;;5074214;28;20404;-61
2022/08/01 08:41:42;;;;;;;4.30;1.15;;;18.60;99.90;;;;;;5074333;28;20044;-60
2022/08/01 08:44:09;;;;;;;5.28;1.00;;;18.70;99.90;;;;;;5074348;28;20049;-60
2022/08/01 08:46:42;;;;;;;2.63;1.13;;;18.80;99.90;;;;;;5072056;28;20091;-61
2022/08/01 08:49:08;;;;;;;9.98;1.20;;;19.00;99.90;;;;;;5074037;28;20567;-60
2022/08/01 08:51:38;;;;;;;3.72;0.68;;;19.30;99.90;;;;;;5074284;28;20029;-60
2022/08/01 08:54:05;;;;;;;3.07;1.20;;;19.40;99.90;;;;;;5073887;28;20047;-61
2022/08/01 08:56:34;;;;;;;2.63;1.10;;;19.40;99.90;;;;;;5074015;28;20049;-61
2022/08/01 08:59:01;;;;;;;4.38;0.70;;;19.40;99.90;;;;;;5073997;28;20392;-60
2022/08/01 09:01:27;;;;;;;4.65;0.95;;;19.30;99.90;;;;;;5073916;28;20035;-61
2022/08/01 09:03:53;;;;;;;1.80;0.80;;;19.40;99.90;;;;;;5073921;28;20037;-61
2022/08/01 09:06:20;;;;;;;1.88;0.75;;;19.60;99.90;;;;;;5073600;28;20046;-60
2022/08/01 09:08:46;;;;;;;2.92;0.70;;;19.70;99.90;;;;;;5073616;28;20458;-60
2022/08/01 09:11:12;;;;;;;2.20;0.90;;;19.60;99.90;;;;;;5073953;28;20112;-60
2022/08/01 09:13:38;;;;;;;3.67;1.08;;;19.60;99.90;;;;;;5073524;28;20050;-61
2022/08/01 09:16:05;;;;;;;2.47;1.15;;;19.60;99.90;;;;;;5073349;28;20155;-60
2022/08/01 09:18:34;;;;;;;2.15;0.80;;;19.90;99.90;;;;;;5073414;28;20083;-60
2022/08/01 09:21:05;;;;;;;1.83;0.70;;;20.00;99.90;;;;;;5073352;28;20040;-61
2022/08/01 09:23:46;;;;;;;4.13;1.00;;;20.00;99.90;;;;;;5073623;28;20490;-60
2022/08/01 09:26:13;;;;;;;4.13;0.70;;;19.90;99.90;;;;;;5073547;28;20036;-61
2022/08/01 09:28:40;;;;;;;2.33;0.93;;;19.60;99.90;;;;;;5073192;28;20083;-61
2022/08/01 09:31:14;;;;;;;3.05;0.85;;;19.60;99.90;;;;;;5073489;28;20040;-61
2022/08/01 09:33:57;;;;;;;4.60;0.98;;;19.70;99.90;;;;;;5073449;28;20037;-61
2022/08/01 09:36:43;;;;;;;1.92;0.75;;;19.80;99.90;;;;;;5073042;28;20077;-60
2022/08/01 09:39:14;;;;;;;1.02;0.63;;;19.90;99.90;;;;;;5072132;28;20051;-61
2022/08/01 09:41:40;;;;;;;5.72;1.17;;;20.00;99.90;;;;;;5073265;28;20080;-61
2022/08/01 09:44:06;;;;;;;3.20;0.73;;;20.10;99.90;;;;;;5073298;28;20502;-60
2022/08/01 09:46:32;;;;;;;3.15;0.63;;;20.20;99.90;;;;;;5073309;28;20115;-60
2022/08/01 09:49:03;;;;;;;5.20;0.98;;;20.40;99.90;;;;;;5073273;28;20037;-60
2022/08/01 09:51:35;;;;;;;2.22;0.80;;;20.40;99.90;;;;;;5073154;28;20050;-61
2022/08/01 09:54:06;;;;;;;1.98;0.65;;;20.40;99.90;;;;;;5073218;28;20040;-61
2022/08/01 09:56:38;;;;;;;;;;;20.40;99.90;;;;;;5071803;28;20492;-61
2022/08/01 09:59:05;;;;;;;2.08;0.88;;;20.40;99.90;;;;;;5072822;28;19916;-61
2022/08/01 10:01:45;;;;;;;0.68;0.40;;;20.30;99.90;;;;;;5072756;28;20047;-63
2022/08/01 10:04:15;;;;;;;2.20;0.70;;;20.40;99.90;;;;;;5072878;28;20044;-60
2022/08/01 10:06:43;;;;;;;0.90;0.50;;;20.50;99.90;;;;;;5073061;28;20045;-61
2022/08/01 10:09:13;;;;;;;2.03;0.70;;;20.60;99.90;;;;;;5073036;28;20094;-61
2022/08/01 10:11:42;;;;;;;1.98;0.80;;;20.80;99.90;;;;;;5072771;28;20554;-61
2022/08/01 10:14:08;;;;;;;1.58;0.70;;;20.80;99.90;;;;;;5071825;28;20430;-61
2022/08/01 10:16:35;;;;;;;1.27;0.80;;;20.90;99.90;;;;;;5072441;28;20075;-60
2022/08/01 10:19:05;;;;;;;1.63;0.80;;;20.90;99.90;;;;;;5072971;28;20028;-61
2022/08/01 10:21:34;;;;;;;1.43;0.63;;;20.80;99.90;;;;;;5072944;28;20071;-60
2022/08/01 10:24:02;;;;;;;2.50;0.57;;;20.70;99.90;;;;;;5071378;28;20048;-60
2022/08/01 10:26:31;;;;;;;3.22;0.70;;;20.70;99.90;;;;;;5072855;28;20041;-61
2022/08/01 10:28:57;;;;;;;1.50;0.70;;;20.80;99.90;;;;;;5072548;28;20044;-60
2022/08/01 10:31:23;;;;;;;1.60;0.60;;;20.80;99.90;;;;;;5072824;28;20391;-61
2022/08/01 10:33:50;;;;;;;3.30;0.95;;;20.60;99.90;;;;;;5071540;28;20052;-61
2022/08/01 10:36:21;;;;;;;1.48;0.70;;;20.50;99.90;;;;;;5072447;28;20072;-61
2022/08/01 10:38:46;;;;;;;;;;;20.40;99.90;;;;;;5071879;28;20416;-60
2022/08/01 10:41:15;;;;;;;6.10;0.60;;;20.50;99.90;;;;;;5072705;28;19916;-60
2022/08/01 10:43:42;;;;;;;0.80;0.68;;;20.60;99.90;;;;;;5072711;28;20079;-60
2022/08/01 10:46:09;;;;;;;4.32;0.80;;;20.60;99.90;;;;;;5072705;28;20056;-60
2022/08/01 10:48:51;;;;;;;1.92;0.60;;;20.80;99.90;;;;;;5072599;28;20044;-61
2022/08/01 10:51:17;;;;;;;1.45;0.60;;;20.90;99.90;;;;;;5072354;28;20075;-60
2022/08/01 10:53:47;;;;;;;1.98;0.98;;;20.80;99.90;;;;;;5072296;28;20079;-60
2022/08/01 10:56:13;;;;;;;4.03;0.43;;;20.70;99.90;;;;;;5071142;28;20119;-61
2022/08/01 10:58:41;;;;;;;3.67;0.63;;;20.60;99.90;;;;;;5071065;28;20128;-61
2022/08/01 11:01:23;;;;;;;0.88;0.47;;;20.50;99.90;;;;;;5071029;28;20051;-61
2022/08/01 11:04:09;;;;;;;1.23;0.57;;;20.60;99.90;;;;;;5071235;28;20040;-61
2022/08/01 11:06:34;;;;;;;5.30;0.68;;;20.90;99.90;;;;;;5070958;28;20041;-60
2022/08/01 11:09:05;;;;;;;1.25;0.80;;;20.90;99.90;;;;;;5073441;28;20039;-60
2022/08/01 11:11:31;;;;;;;0.75;0.55;;;20.80;99.90;;;;;;5076123;28;20032;-61
2022/08/01 11:14:12;;;;;;;2.33;0.60;;;20.60;99.90;;;;;;5076100;28;20443;-60
2022/08/01 11:16:39;;;;;;;4.60;0.80;;;20.60;99.90;;;;;;5075615;28;20052;-60
2022/08/01 11:19:07;;;;;;;0.35;0.32;;;20.60;99.90;;;;;;5075735;28;20091;-60
2022/08/01 11:22:02;;;;;;;1.00;0.43;;;20.60;99.90;;;;;;5075950;28;20047;-60
2022/08/01 11:24:51;;;;;;;1.83;0.68;;;20.60;99.90;;;;;;5073340;28;20056;-61
2022/08/01 11:27:24;;;;;;;4.03;0.52;;;20.60;99.90;;;;;;5075916;28;20127;-61
2022/08/01 11:30:08;;;;;;;1.98;0.80;;;;;;;;;;5075813;28;20048;-61
2022/08/01 11:32:45;;;;;;;2.08;0.73;;;;;;;;;;5074857;28;20060;-60
2022/08/01 11:35:11;;;;;;;2.53;0.60;;;20.40;99.90;;;;;;5075948;28;20048;-60
2022/08/01 11:37:38;;;;;;;2.40;0.68;;;20.80;99.90;;;;;;5075411;28;20419;-60
2022/08/01 11:40:26;;;;;;;1.05;0.68;;;20.80;99.90;;;;;;5075633;28;20036;-60
2022/08/01 11:43:13;;;;;;;1.92;0.57;;;20.80;99.90;;;;;;5075283;28;20111;-60
2022/08/01 11:45:56;;;;;;;1.35;0.65;;;20.90;99.90;;;;;;5075163;28;20075;-61
2022/08/01 11:48:23;;;;;;;2.45;0.57;;;21.00;99.90;;;;;;5075393;28;20040;-61
2022/08/01 11:50:55;;;;;;;2.38;1.10;;;20.60;99.90;;;;;;5074170;28;20515;-60
2022/08/01 11:53:21;;;;;;;0.57;0.32;;;20.60;99.90;;;;;;5075070;28;20094;-60
2022/08/01 11:55:52;;;;;;;1.98;0.75;;;20.80;99.90;;;;;;5075243;28;20048;-60
2022/08/01 11:58:24;;;;;;;3.95;0.88;;;20.80;99.90;;;;;;5075302;28;20123;-60
2022/08/01 12:00:54;;;;;;;1.50;0.60;;;20.80;99.90;;;;;;5075242;28;20037;-60
2022/08/01 12:03:32;;;;;;;1.65;0.45;;;20.80;99.90;;;;;;5074930;28;20124;-60
2022/08/01 12:05:58;;;;;;;2.08;0.88;;;20.90;99.90;;;;;;5075089;28;20040;-61
2022/08/01 12:08:36;;;;;;;1.08;0.50;;;20.70;99.90;;;;;;5075067;28;20044;-60
2022/08/01 12:11:03;;;;;;;1.17;0.70;;;21.10;99.90;;;;;;5075120;28;20399;-60
2022/08/01 12:13:43;;;;;;;1.67;0.75;;;21.40;99.90;;;;;;5074700;28;20043;-60
2022/08/01 12:16:10;;;;;;;0.90;0.50;;;21.40;99.90;;;;;;5074479;28;20052;-60
2022/08/01 12:18:41;;;;;;;1.13;0.60;;;21.10;99.90;;;;;;5074936;28;20124;-60
2022/08/01 12:21:06;;;;;;;;;;;21.00;99.90;;;;;;5075080;28;20087;-61
2022/08/01 12:23:32;;;;;;;4.25;0.40;;;21.00;99.90;;;;;;5074767;28;19952;-62
2022/08/01 12:25:57;;;;;;;0.95;0.50;;;21.00;99.90;;;;;;5074503;28;20052;-60
2022/08/01 12:28:24;;;;;;;1.15;0.63;;;21.10;99.90;;;;;;5074740;28;20037;-60
2022/08/01 12:30:50;;;;;;;2.00;0.50;;;21.20;99.90;;;;;;5074663;28;20040;-61
2022/08/01 12:33:19;;;;;;;1.13;0.55;;;21.20;99.90;;;;;;5074300;28;20480;-60
2022/08/01 12:35:45;;;;;;;1.98;0.45;;;21.30;99.90;;;;;;5074170;28;20036;-60
2022/08/01 12:38:19;;;;;;;3.97;0.52;;;21.40;99.90;;;;;;5074538;28;20043;-61
2022/08/01 12:40:47;;;;;;;2.70;0.70;;;21.60;99.90;;;;;;5074448;28;20476;-60
2022/08/01 12:43:18;;;;;;;2.25;0.60;;;21.50;99.90;;;;;;5073171;28;20083;-60
2022/08/01 12:45:45;;;;;;;1.40;0.50;;;21.10;99.90;;;;;;5074433;28;20079;-60
2022/08/01 12:48:12;;;;;;;0.40;0.40;;;;;;;;;;5074337;28;20369;-60
2022/08/01 12:50:43;;;;;;;1.98;0.60;;;;;;;;;;5072916;28;20048;-60
2022/08/01 12:53:09;;;;;;;1.40;0.52;;;;;;;;;;5074252;28;20504;-60
2022/08/01 12:55:44;;;;;;;0.65;0.35;;;;;;;;;;5072830;28;20040;-60
2022/08/01 12:58:12;;;;;;;0.65;0.60;;;;;;;;;;5074153;28;20503;-61
2022/08/01 13:00:39;;;;;;;1.00;0.68;;;;;;;;;;5073734;28;20041;-61